Time;durP1;ratioP1;P1;durP2;ratioP2;P2;SDS_P1;SDS_P2;PMS_P1;PMS_P2;Temp;Humidity;BMP_temperature;BMP_pressure;BME280_temperature;BME280_humidity;BME280_pressure;Samples;Min_cycle;Max_cycle;Signal;HPM_P1;HPM_P2
2023/09/04 00:00:36;;;;;;;6.05;4.25;;;20.30;53.90;;;;;;5028216;28;114690;-78
2023/09/04 00:03:03;;;;;;;4.50;3.53;;;20.30;53.70;;;;;;5028103;28;114326;-78
2023/09/04 00:05:34;;;;;;;5.88;3.83;;;20.30;53.90;;;;;;5027035;28;115462;-80
2023/09/04 00:08:01;;;;;;;5.47;3.85;;;20.30;54.10;;;;;;5026208;27;114589;-78
2023/09/04 00:10:28;;;;;;;6.15;3.83;;;20.30;54.10;;;;;;5027415;28;114171;-77
2023/09/04 00:12:55;;;;;;;5.18;3.90;;;20.30;54.00;;;;;;5009931;28;114352;-79
2023/09/04 00:15:22;;;;;;;5.28;3.47;;;20.30;53.90;;;;;;5026353;28;114926;-78
2023/09/04 00:17:50;;;;;;;6.07;3.97;;;20.30;54.10;;;;;;5026624;28;114708;-79
2023/09/04 00:20:17;;;;;;;5.32;3.72;;;20.30;54.10;;;;;;5027544;28;114264;-78
2023/09/04 00:22:44;;;;;;;4.85;3.58;;;20.20;54.10;;;;;;5027567;28;114221;-78
2023/09/04 00:25:11;;;;;;;5.10;3.58;;;20.20;54.30;;;;;;5025381;28;114829;-79
2023/09/04 00:27:38;;;;;;;5.00;3.55;;;20.30;54.30;;;;;;5026932;28;114681;-78
2023/09/04 00:30:06;;;;;;;4.78;3.55;;;20.30;54.30;;;;;;5026214;28;114091;-78
2023/09/04 00:32:33;;;;;;;6.70;4.00;;;20.30;54.30;;;;;;5027629;28;114266;-79
2023/09/04 00:35:02;;;;;;;5.65;3.72;;;20.30;54.20;;;;;;5007859;28;118064;-78
2023/09/04 00:37:29;;;;;;;5.47;3.75;;;20.30;54.20;;;;;;5026225;28;114620;-77
2023/09/04 00:39:57;;;;;;;4.65;3.28;;;20.30;54.20;;;;;;4992888;28;114373;-78
2023/09/04 00:42:24;;;;;;;6.40;4.30;;;20.20;54.30;;;;;;5025847;28;114226;-78
2023/09/04 00:44:51;;;;;;;5.10;3.50;;;20.20;54.20;;;;;;5008397;28;114938;-78
2023/09/04 00:47:18;;;;;;;4.75;3.20;;;20.20;54.40;;;;;;5008283;28;116031;-78
2023/09/04 00:49:45;;;;;;;7.50;4.00;;;20.30;54.30;;;;;;5026085;28;114268;-78
2023/09/04 00:52:12;;;;;;;5.00;3.40;;;20.30;54.30;;;;;;5009434;28;114408;-78
2023/09/04 00:54:39;;;;;;;5.40;3.67;;;20.30;54.30;;;;;;5024742;28;115534;-78
2023/09/04 00:57:06;;;;;;;4.68;3.38;;;20.20;54.20;;;;;;5024992;28;114656;-78
2023/09/04 00:59:33;;;;;;;5.40;3.50;;;20.30;54.20;;;;;;5025222;28;114396;-79
2023/09/04 01:02:01;;;;;;;5.45;3.63;;;20.30;54.10;;;;;;5025605;28;114249;-78
2023/09/04 01:04:28;;;;;;;5.82;3.42;;;20.30;54.20;;;;;;5008008;28;117163;-78
2023/09/04 01:06:55;;;;;;;5.60;4.20;;;20.30;54.20;;;;;;5025747;28;114585;-78
2023/09/04 01:09:22;;;;;;;8.05;4.43;;;20.30;53.80;;;;;;5026996;28;114370;-78
2023/09/04 01:11:59;;;;;;;5.43;4.20;;;20.20;53.60;;;;;;5025695;28;114468;-78
2023/09/04 01:14:26;;;;;;;6.93;3.90;;;20.10;54.10;;;;;;5027799;28;114828;-78
2023/09/04 01:16:53;;;;;;;5.55;3.78;;;20.00;54.40;;;;;;4991696;28;117954;-78
2023/09/04 01:19:20;;;;;;;7.60;4.30;;;20.00;54.50;;;;;;5007747;28;114319;-78
2023/09/04 01:21:47;;;;;;;6.40;3.97;;;20.00;54.30;;;;;;5009009;28;114277;-78
2023/09/04 01:24:14;;;;;;;6.68;4.13;;;20.00;54.40;;;;;;5024328;28;114864;-78
2023/09/04 01:27:05;;;;;;;5.50;3.70;;;20.00;54.30;;;;;;5024085;28;115804;-78
2023/09/04 01:29:42;;;;;;;6.13;4.53;;;20.10;54.40;;;;;;5009110;28;114498;-78
2023/09/04 01:32:26;;;;;;;7.60;4.97;;;20.00;54.60;;;;;;5025441;28;114185;-78
2023/09/04 01:34:54;;;;;;;5.35;3.95;;;19.90;54.30;;;;;;5024499;28;115485;-78
2023/09/04 01:37:21;;;;;;;9.20;4.65;;;19.80;54.90;;;;;;5024238;28;114629;-78
2023/09/04 01:39:48;;;;;;;7.03;4.28;;;19.80;54.70;;;;;;5025317;28;114285;-78
2023/09/04 01:42:16;;;;;;;6.00;3.92;;;19.80;54.80;;;;;;5008969;28;114323;-78
2023/09/04 01:44:43;;;;;;;5.20;3.40;;;19.80;55.10;;;;;;5024105;28;115194;-78
2023/09/04 01:47:10;;;;;;;7.03;4.28;;;19.80;55.20;;;;;;5025191;28;115048;-77
2023/09/04 01:49:38;;;;;;;9.13;4.97;;;19.80;55.10;;;;;;5024694;28;114356;-78
2023/09/04 01:52:05;;;;;;;8.50;4.47;;;19.70;54.90;;;;;;5025151;28;114368;-78
2023/09/04 01:54:32;;;;;;;6.65;4.45;;;19.70;55.20;;;;;;5025115;28;115525;-78
2023/09/04 01:57:00;;;;;;;7.80;4.53;;;19.70;55.00;;;;;;5025122;27;114575;-78
2023/09/04 01:59:27;;;;;;;5.40;3.80;;;19.60;55.40;;;;;;5025225;28;114154;-78
2023/09/04 02:01:54;;;;;;;7.53;4.22;;;19.50;55.60;;;;;;5025108;28;114103;-77
2023/09/04 02:04:21;;;;;;;5.10;3.67;;;19.50;55.80;;;;;;5024042;28;115154;-77
2023/09/04 02:06:48;;;;;;;5.45;3.83;;;19.60;55.70;;;;;;5024380;28;115038;-78
2023/09/04 02:09:15;;;;;;;7.40;4.30;;;19.70;55.60;;;;;;5024980;28;114210;-78
2023/09/04 02:11:42;;;;;;;6.35;4.30;;;19.70;55.50;;;;;;4991349;28;114247;-79
2023/09/04 02:14:09;;;;;;;6.45;4.10;;;19.80;55.40;;;;;;5022580;28;117071;-78
2023/09/04 02:16:37;;;;;;;4.75;3.75;;;19.80;55.10;;;;;;5023857;28;114622;-78
2023/09/04 02:19:04;;;;;;;5.05;3.70;;;19.80;55.20;;;;;;5024672;28;114434;-78
2023/09/04 02:21:32;;;;;;;4.90;3.60;;;19.80;55.30;;;;;;5026111;28;114198;-78
2023/09/04 02:23:59;;;;;;;6.35;4.50;;;19.80;55.00;;;;;;5023565;28;115325;-78
2023/09/04 02:26:26;;;;;;;6.70;3.90;;;19.90;55.00;;;;;;5023630;28;114945;-79
2023/09/04 02:28:53;;;;;;;5.75;3.35;;;19.80;55.00;;;;;;5024635;28;114407;-79
2023/09/04 02:31:20;;;;;;;7.22;3.92;;;19.90;54.90;;;;;;5028729;27;114264;-79
2023/09/04 02:33:47;;;;;;;6.75;3.75;;;19.90;54.70;;;;;;5010751;28;115124;-78
2023/09/04 02:36:15;;;;;;;5.15;3.65;;;19.90;54.80;;;;;;5027152;28;115190;-79
2023/09/04 02:38:42;;;;;;;6.88;3.60;;;19.90;54.80;;;;;;5010864;28;114606;-78
2023/09/04 02:41:09;;;;;;;4.93;3.47;;;19.90;54.80;;;;;;5011494;28;114292;-79
2023/09/04 02:43:36;;;;;;;7.28;3.72;;;19.90;54.60;;;;;;5026858;28;115312;-79
2023/09/04 02:46:03;;;;;;;4.72;3.50;;;19.90;54.50;;;;;;5010496;28;114592;-78
2023/09/04 02:48:31;;;;;;;5.65;3.85;;;19.90;54.50;;;;;;5029097;28;114114;-79
2023/09/04 02:50:59;;;;;;;4.63;3.28;;;19.90;54.70;;;;;;5028857;28;114303;-78
2023/09/04 02:53:29;;;;;;;5.38;3.25;;;19.90;54.80;;;;;;5010143;28;115236;-79
2023/09/04 02:55:56;;;;;;;4.65;3.50;;;19.90;54.70;;;;;;5027199;28;114759;-78
2023/09/04 02:58:24;;;;;;;6.05;3.53;;;19.90;54.60;;;;;;5010199;28;114184;-78
2023/09/04 03:00:52;;;;;;;5.15;3.38;;;19.90;54.70;;;;;;5027566;28;114420;-78
2023/09/04 03:03:21;;;;;;;5.70;3.80;;;19.90;54.70;;;;;;5008900;28;117927;-78
2023/09/04 03:05:49;;;;;;;5.93;3.60;;;19.90;54.40;;;;;;5026742;28;114689;-78
2023/09/04 03:08:16;;;;;;;5.68;3.25;;;19.80;54.60;;;;;;5027246;28;114468;-79
2023/09/04 03:10:43;;;;;;;6.13;3.10;;;19.80;54.40;;;;;;5027707;28;114336;-78
2023/09/04 03:13:13;;;;;;;6.43;3.60;;;19.80;54.50;;;;;;5009873;28;118646;-78
2023/09/04 03:15:41;;;;;;;6.05;3.30;;;19.80;54.40;;;;;;5025760;28;116823;-78
2023/09/04 03:18:09;;;;;;;6.10;3.67;;;19.80;54.70;;;;;;5027360;28;114942;-78
2023/09/04 03:20:36;;;;;;;6.25;3.50;;;19.80;54.10;;;;;;5027717;28;114208;-78
2023/09/04 03:23:03;;;;;;;4.75;3.40;;;19.80;54.70;;;;;;5026625;28;114851;-78
2023/09/04 03:25:32;;;;;;;6.35;3.50;;;19.70;54.60;;;;;;5027866;28;114610;-78
2023/09/04 03:27:59;;;;;;;4.97;3.35;;;19.70;54.50;;;;;;5010147;28;114069;-78
2023/09/04 03:30:26;;;;;;;5.70;3.15;;;19.70;54.60;;;;;;5010475;28;114342;-79
2023/09/04 03:32:54;;;;;;;6.40;3.85;;;19.70;54.80;;;;;;5026026;28;114825;-78
2023/09/04 03:35:22;;;;;;;4.45;3.58;;;19.60;54.20;;;;;;5009988;28;114679;-78
2023/09/04 03:37:49;;;;;;;4.97;3.40;;;19.60;54.20;;;;;;5028460;28;114298;-79
2023/09/04 03:40:18;;;;;;;5.20;3.28;;;19.60;54.50;;;;;;5027278;28;114239;-78
2023/09/04 03:42:45;;;;;;;7.47;3.45;;;19.50;54.70;;;;;;5025077;27;114272;-79
2023/09/04 03:45:12;;;;;;;5.70;3.40;;;19.50;54.40;;;;;;5026191;28;115117;-78
2023/09/04 03:47:39;;;;;;;4.68;2.78;;;19.50;55.00;;;;;;5027097;28;114402;-79
2023/09/04 03:50:09;;;;;;;4.97;3.10;;;19.50;55.20;;;;;;5026658;28;114284;-78
2023/09/04 03:52:38;;;;;;;5.93;3.15;;;19.50;55.10;;;;;;5025394;28;116162;-79
2023/09/04 03:55:09;;;;;;;5.35;3.40;;;19.60;55.10;;;;;;5025912;28;114684;-78
2023/09/04 03:57:36;;;;;;;6.40;3.70;;;19.60;54.30;;;;;;5026897;28;114461;-78
2023/09/04 04:00:14;;;;;;;8.30;3.83;;;19.60;54.80;;;;;;5026671;28;114773;-79
2023/09/04 04:02:41;;;;;;;6.60;3.80;;;19.60;54.50;;;;;;5025737;28;116496;-78
2023/09/04 04:05:12;;;;;;;5.72;4.22;;;19.60;55.00;;;;;;5009019;28;114572;-78
2023/09/04 04:07:40;;;;;;;5.85;4.15;;;19.70;54.60;;;;;;5010611;28;114401;-79
2023/09/04 04:10:07;;;;;;;4.68;3.72;;;19.80;54.80;;;;;;5010233;28;114531;-78
2023/09/04 04:12:34;;;;;;;5.10;3.50;;;19.70;54.70;;;;;;5026920;28;115069;-78
2023/09/04 04:15:04;;;;;;;5.80;3.17;;;19.80;54.60;;;;;;5025472;28;114846;-79
2023/09/04 04:17:35;;;;;;;5.35;3.67;;;19.80;54.60;;;;;;5026154;28;114174;-79
2023/09/04 04:20:06;;;;;;;6.40;3.90;;;19.80;54.30;;;;;;5026561;28;114231;-78
2023/09/04 04:22:34;;;;;;;5.65;3.30;;;19.80;54.40;;;;;;5026816;28;115476;-79
2023/09/04 04:25:01;;;;;;;4.60;3.30;;;19.80;54.20;;;;;;5025528;28;114576;-80
2023/09/04 04:27:28;;;;;;;6.10;3.97;;;19.80;54.40;;;;;;5027654;28;114239;-80
2023/09/04 04:29:55;;;;;;;6.43;3.38;;;19.80;54.40;;;;;;5025933;28;114359;-79
2023/09/04 04:32:26;;;;;;;5.75;3.58;;;19.80;54.10;;;;;;5025401;28;114943;-79
2023/09/04 04:34:53;;;;;;;5.18;3.00;;;19.80;53.90;;;;;;5025630;28;114727;-79
2023/09/04 04:37:21;;;;;;;5.68;3.45;;;19.80;54.00;;;;;;5026099;28;114384;-78
2023/09/04 04:39:48;;;;;;;6.80;3.47;;;19.80;53.40;;;;;;5025987;28;114323;-79
2023/09/04 04:42:15;;;;;;;6.30;3.55;;;19.70;54.00;;;;;;5024589;28;115188;-78
2023/09/04 04:44:43;;;;;;;5.32;3.67;;;19.70;53.90;;;;;;5008843;28;114647;-78
2023/09/04 04:47:10;;;;;;;5.32;3.40;;;19.60;54.10;;;;;;5026133;28;114097;-80
2023/09/04 04:49:37;;;;;;;5.97;3.67;;;19.60;54.30;;;;;;5025844;28;114333;-78
2023/09/04 04:52:04;;;;;;;5.30;3.20;;;19.50;54.00;;;;;;5025017;28;115556;-79
2023/09/04 04:54:32;;;;;;;5.90;3.33;;;19.40;54.60;;;;;;5026106;27;114597;-79
2023/09/04 04:56:59;;;;;;;6.57;3.40;;;19.40;54.80;;;;;;5025366;28;114615;-78
2023/09/04 04:59:26;;;;;;;7.20;4.03;;;19.40;55.00;;;;;;5009507;28;114398;-79
2023/09/04 05:01:56;;;;;;;7.38;3.90;;;19.40;54.60;;;;;;5024821;28;115013;-79
2023/09/04 05:04:23;;;;;;;4.82;3.03;;;19.30;54.50;;;;;;5024964;28;114645;-79
2023/09/04 05:06:51;;;;;;;8.20;3.88;;;19.30;54.90;;;;;;5025241;28;114286;-80
2023/09/04 05:09:18;;;;;;;6.45;3.15;;;19.30;54.10;;;;;;5008464;28;114310;-79
2023/09/04 05:11:45;;;;;;;6.93;3.42;;;19.30;54.40;;;;;;5024699;28;117112;-79
2023/09/04 05:14:12;;;;;;;7.13;3.95;;;19.30;54.40;;;;;;5025602;28;114619;-78
2023/09/04 05:16:40;;;;;;;7.40;3.25;;;19.20;54.40;;;;;;5025473;28;114505;-79
2023/09/04 05:19:07;;;;;;;8.25;4.30;;;19.20;55.10;;;;;;5025474;28;114493;-78
2023/09/04 05:21:34;;;;;;;5.97;4.05;;;19.20;54.60;;;;;;5025772;28;115099;-79
2023/09/04 05:24:20;;;;;;;6.82;3.60;;;19.20;54.80;;;;;;5011126;28;114609;-79
2023/09/04 05:26:47;;;;;;;6.40;3.70;;;19.10;54.80;;;;;;5025617;28;114289;-78
2023/09/04 05:29:14;;;;;;;7.85;4.28;;;19.00;54.90;;;;;;5025628;28;114216;-79
2023/09/04 05:31:58;;;;;;;7.35;4.03;;;19.00;54.50;;;;;;5024115;28;114845;-79
2023/09/04 05:34:26;;;;;;;7.68;3.58;;;18.80;55.20;;;;;;5025507;28;116881;-78
2023/09/04 05:36:57;;;;;;;7.10;3.90;;;18.80;55.50;;;;;;5026508;28;114081;-79
2023/09/04 05:39:24;;;;;;;6.07;4.10;;;18.90;55.50;;;;;;5026592;28;114340;-80
2023/09/04 05:41:51;;;;;;;6.53;4.47;;;19.10;55.00;;;;;;5024131;28;114998;-79
2023/09/04 05:44:18;;;;;;;7.00;4.00;;;19.20;55.00;;;;;;5025714;28;115204;-79
2023/09/04 05:46:45;;;;;;;9.82;5.80;;;19.30;54.90;;;;;;5025468;28;114247;-78
2023/09/04 05:49:13;;;;;;;8.50;5.28;;;19.40;54.20;;;;;;5026530;28;114257;-79
2023/09/04 05:51:40;;;;;;;6.32;3.83;;;19.50;53.80;;;;;;5025528;28;114891;-78
2023/09/04 05:54:07;;;;;;;8.02;4.45;;;19.50;54.50;;;;;;5024905;28;116089;-79
2023/09/04 05:56:34;;;;;;;5.07;3.83;;;19.50;54.00;;;;;;5024585;28;114105;-80
2023/09/04 05:59:01;;;;;;;6.25;4.18;;;19.60;53.60;;;;;;5025360;28;114449;-79
2023/09/04 06:01:29;;;;;;;6.65;3.53;;;19.70;53.60;;;;;;5023855;28;114974;-78
2023/09/04 06:03:57;;;;;;;6.90;3.83;;;19.60;53.90;;;;;;5025212;27;114679;-78
2023/09/04 06:06:24;;;;;;;9.15;4.55;;;19.50;54.00;;;;;;5007696;28;114231;-79
2023/09/04 06:08:52;;;;;;;9.07;4.43;;;19.50;53.80;;;;;;5029876;28;114298;-78
2023/09/04 06:11:19;;;;;;;6.63;3.72;;;19.60;53.70;;;;;;5025297;27;114245;-78
2023/09/04 06:13:46;;;;;;;8.98;3.60;;;19.80;53.40;;;;;;5025085;28;114714;-78
2023/09/04 06:16:14;;;;;;;6.10;3.45;;;19.80;52.70;;;;;;5026124;28;114116;-78
2023/09/04 06:18:41;;;;;;;5.40;3.25;;;19.80;53.10;;;;;;5026140;28;114282;-78
2023/09/04 06:21:08;;;;;;;5.80;3.38;;;19.80;53.00;;;;;;5024522;28;115129;-78
2023/09/04 06:23:35;;;;;;;5.53;3.45;;;19.90;52.70;;;;;;5024875;28;115181;-78
2023/09/04 06:26:05;;;;;;;9.82;3.78;;;19.90;52.80;;;;;;5025919;28;114168;-78
2023/09/04 06:28:32;;;;;;;6.90;3.08;;;19.90;51.80;;;;;;5025859;28;114313;-78
2023/09/04 06:30:59;;;;;;;7.00;3.67;;;19.80;52.40;;;;;;5024766;28;114885;-78
2023/09/04 06:33:26;;;;;;;6.03;3.20;;;19.90;51.80;;;;;;5006802;28;118372;-79
2023/09/04 06:35:57;;;;;;;7.15;3.58;;;19.80;51.90;;;;;;5024723;28;114385;-78
2023/09/04 06:38:24;;;;;;;5.50;3.28;;;19.60;52.60;;;;;;5025099;28;114074;-78
2023/09/04 06:40:57;;;;;;;6.53;3.10;;;19.50;52.80;;;;;;5024561;28;114874;-79
2023/09/04 06:43:28;;;;;;;8.85;3.67;;;19.50;53.00;;;;;;5024444;28;115179;-78
2023/09/04 06:45:55;;;;;;;5.95;3.75;;;19.70;53.20;;;;;;5023432;28;114314;-78
2023/09/04 06:48:22;;;;;;;5.60;3.53;;;19.80;52.20;;;;;;5025717;28;114094;-79
2023/09/04 06:50:51;;;;;;;5.80;3.53;;;19.80;51.60;;;;;;5024451;28;114865;-79
2023/09/04 06:53:18;;;;;;;8.35;4.20;;;19.90;51.90;;;;;;5006793;28;114686;-79
2023/09/04 06:55:47;;;;;;;6.47;3.92;;;19.80;52.30;;;;;;5024467;28;114890;-79
2023/09/04 06:58:14;;;;;;;7.72;4.00;;;19.90;52.40;;;;;;5024097;28;114439;-79
2023/09/04 07:00:41;;;;;;;6.18;4.22;;;19.90;51.90;;;;;;5024445;28;115018;-78
2023/09/04 07:03:08;;;;;;;7.60;4.03;;;19.90;52.60;;;;;;5024494;28;115133;-79
2023/09/04 07:05:36;;;;;;;5.72;3.25;;;19.90;52.40;;;;;;5025184;28;115156;-79
2023/09/04 07:08:04;;;;;;;6.72;3.97;;;20.00;51.90;;;;;;5025524;28;114959;-79
2023/09/04 07:10:32;;;;;;;9.20;4.38;;;19.80;52.10;;;;;;5023705;27;114887;-78
2023/09/04 07:13:00;;;;;;;4.60;3.33;;;19.80;51.80;;;;;;5024363;28;114648;-78
2023/09/04 07:15:28;;;;;;;7.30;4.13;;;19.90;51.80;;;;;;5023899;28;114466;-77
2023/09/04 07:17:57;;;;;;;7.10;4.10;;;20.10;51.50;;;;;;5025957;28;114268;-78
2023/09/04 07:20:24;;;;;;;7.60;4.63;;;20.20;51.30;;;;;;5027910;28;114912;-79
2023/09/04 07:22:51;;;;;;;6.75;3.97;;;20.20;51.70;;;;;;5027428;28;114663;-78
2023/09/04 07:25:29;;;;;;;6.32;3.78;;;20.30;51.10;;;;;;5012490;28;114265;-79
2023/09/04 07:27:56;;;;;;;6.72;3.80;;;20.30;51.60;;;;;;5028902;28;114691;-79
2023/09/04 07:30:23;;;;;;;6.88;3.55;;;20.30;51.20;;;;;;5027172;28;116273;-78
2023/09/04 07:32:50;;;;;;;9.73;3.40;;;20.30;51.10;;;;;;5026517;28;115080;-78
2023/09/04 07:35:17;;;;;;;10.50;3.47;;;20.30;50.10;;;;;;5026312;28;114273;-78
2023/09/04 07:37:45;;;;;;;4.82;2.55;;;20.30;50.00;;;;;;5027290;28;114242;-79
2023/09/04 07:40:12;;;;;;;6.30;3.78;;;20.20;49.50;;;;;;5027283;28;114890;-80
2023/09/04 07:42:41;;;;;;;5.65;2.80;;;20.10;50.30;;;;;;5027206;28;114671;-79
2023/09/04 07:45:08;;;;;;;7.10;3.40;;;20.10;49.40;;;;;;4993619;28;114360;-78
2023/09/04 07:47:35;;;;;;;7.13;3.65;;;20.00;50.50;;;;;;5027255;28;114353;-78
2023/09/04 07:50:03;;;;;;;6.40;3.45;;;20.10;50.30;;;;;;5026961;28;114946;-78
2023/09/04 07:52:30;;;;;;;5.82;3.10;;;20.00;50.50;;;;;;5026037;28;115366;-79
2023/09/04 07:54:57;;;;;;;5.82;2.80;;;20.00;50.50;;;;;;5028124;28;114191;-78
2023/09/04 07:57:24;;;;;;;4.40;2.67;;;19.90;49.80;;;;;;5027915;28;114660;-79
2023/09/04 07:59:52;;;;;;;8.30;3.13;;;19.80;50.00;;;;;;5026691;28;114926;-79
2023/09/04 08:02:19;;;;;;;6.82;3.15;;;19.80;50.00;;;;;;5027109;28;114887;-79
2023/09/04 08:04:46;;;;;;;7.00;3.50;;;19.80;50.70;;;;;;5026993;28;114370;-79
2023/09/04 08:07:13;;;;;;;5.10;2.70;;;19.80;51.50;;;;;;5027000;28;114265;-80
2023/09/04 08:09:40;;;;;;;7.60;3.30;;;19.90;50.10;;;;;;5025857;28;114915;-78
2023/09/04 08:12:07;;;;;;;5.75;3.05;;;19.80;50.50;;;;;;5008952;28;118752;-79
2023/09/04 08:14:36;;;;;;;6.15;3.15;;;19.70;51.20;;;;;;5027333;28;114262;-80
2023/09/04 08:17:04;;;;;;;5.95;3.03;;;19.80;51.00;;;;;;5027057;28;114626;-79
2023/09/04 08:19:32;;;;;;;8.10;3.05;;;19.70;50.90;;;;;;5026776;28;115431;-79
2023/09/04 08:21:59;;;;;;;5.75;2.78;;;19.80;51.20;;;;;;5025750;28;114928;-79
2023/09/04 08:24:26;;;;;;;6.90;2.92;;;19.80;50.80;;;;;;5025849;28;114467;-79
2023/09/04 08:26:53;;;;;;;6.22;2.95;;;19.90;51.00;;;;;;5027971;28;114092;-78
2023/09/04 08:29:20;;;;;;;5.97;2.80;;;20.00;50.50;;;;;;5026202;27;114968;-78
2023/09/04 08:31:48;;;;;;;5.97;3.20;;;20.20;50.50;;;;;;5025366;28;114684;-79
2023/09/04 08:34:15;;;;;;;4.65;3.05;;;20.30;49.70;;;;;;5026272;28;114076;-78
2023/09/04 08:36:43;;;;;;;6.93;2.95;;;20.30;49.20;;;;;;5027430;28;114309;-79
2023/09/04 08:39:10;;;;;;;5.32;3.03;;;20.20;49.60;;;;;;5026455;28;114884;-79
2023/09/04 08:41:38;;;;;;;6.82;3.05;;;20.10;49.70;;;;;;5025346;28;114854;-79
2023/09/04 08:44:05;;;;;;;8.32;3.10;;;20.20;50.10;;;;;;5009360;28;114509;-79
2023/09/04 08:46:32;;;;;;;6.18;2.40;;;20.30;49.20;;;;;;5027453;28;114230;-80
2023/09/04 08:49:00;;;;;;;6.43;2.35;;;20.30;49.30;;;;;;5025680;28;114882;-79
2023/09/04 08:51:28;;;;;;;4.55;2.40;;;20.40;49.00;;;;;;5025078;28;114876;-77
2023/09/04 08:53:56;;;;;;;5.55;2.80;;;20.50;49.50;;;;;;5025901;28;114448;-78
2023/09/04 08:56:26;;;;;;;6.97;2.70;;;20.60;49.00;;;;;;5027316;28;114063;-78
2023/09/04 08:58:53;;;;;;;5.82;2.65;;;20.70;48.70;;;;;;5024945;28;115045;-82
2023/09/04 09:01:21;;;;;;;4.20;2.30;;;20.80;48.60;;;;;;5024736;28;114584;-78
2023/09/04 09:03:49;;;;;;;3.45;2.20;;;20.80;47.00;;;;;;5025766;28;114519;-78
2023/09/04 09:06:16;;;;;;;4.70;2.35;;;20.70;47.10;;;;;;5027369;28;114210;-78
2023/09/04 09:08:44;;;;;;;4.22;2.30;;;20.60;48.00;;;;;;5024697;28;115359;-78
2023/09/04 09:11:13;;;;;;;7.32;2.30;;;20.50;48.40;;;;;;5024627;28;114692;-78
2023/09/04 09:13:40;;;;;;;4.97;2.28;;;20.30;48.00;;;;;;5025733;27;114447;-78
2023/09/04 09:16:07;;;;;;;7.60;2.88;;;20.40;47.70;;;;;;5025532;28;114538;-78
2023/09/04 09:18:38;;;;;;;6.88;2.63;;;20.60;48.10;;;;;;5024324;28;115691;-78
2023/09/04 09:21:28;;;;;;;4.57;2.28;;;20.70;48.10;;;;;;5008195;28;114607;-79
2023/09/04 09:24:16;;;;;;;4.68;2.47;;;20.90;47.60;;;;;;5026639;27;114190;-79
2023/09/04 09:26:47;;;;;;;4.93;2.30;;;20.90;47.20;;;;;;5025350;28;114497;-79
2023/09/04 09:29:15;;;;;;;4.85;2.15;;;20.70;47.40;;;;;;5024447;28;114956;-79
2023/09/04 09:31:44;;;;;;;4.05;2.00;;;20.80;46.30;;;;;;5025794;28;116110;-79
2023/09/04 09:34:12;;;;;;;4.30;2.10;;;21.00;45.90;;;;;;5024973;28;114539;-80
2023/09/04 09:36:39;;;;;;;6.85;2.75;;;21.20;45.80;;;;;;5008632;28;114238;-79
2023/09/04 09:39:07;;;;;;;5.80;2.33;;;21.30;45.00;;;;;;5006517;28;116744;-79
2023/09/04 09:41:37;;;;;;;3.70;2.17;;;21.40;43.50;;;;;;5023437;28;115270;-79
2023/09/04 09:44:07;;;;;;;4.53;2.17;;;21.30;45.10;;;;;;5025240;28;114182;-79
2023/09/04 09:46:35;;;;;;;4.18;2.15;;;21.20;45.30;;;;;;5008701;28;114467;-79
2023/09/04 09:49:02;;;;;;;4.47;2.13;;;21.20;46.30;;;;;;5025427;27;115171;-77
2023/09/04 09:51:32;;;;;;;3.95;2.40;;;21.20;45.10;;;;;;5023792;28;117757;-78
2023/09/04 09:53:59;;;;;;;6.43;2.70;;;21.00;45.70;;;;;;5026479;28;114104;-79
2023/09/04 09:56:26;;;;;;;4.85;2.10;;;20.90;45.70;;;;;;5025791;28;114402;-78
2023/09/04 09:58:54;;;;;;;4.88;2.13;;;20.90;45.90;;;;;;5025184;28;115100;-79
2023/09/04 10:01:21;;;;;;;4.53;2.30;;;20.90;45.80;;;;;;5023810;28;114681;-78
2023/09/04 10:03:48;;;;;;;4.07;2.08;;;20.90;44.70;;;;;;5024273;28;114162;-78
2023/09/04 10:06:20;;;;;;;4.60;2.22;;;20.90;45.60;;;;;;5025911;28;114271;-78
2023/09/04 10:08:47;;;;;;;4.68;1.77;;;20.90;44.50;;;;;;5023765;28;115233;-79
2023/09/04 10:11:16;;;;;;;5.35;2.50;;;20.90;45.50;;;;;;5007396;28;114583;-79
2023/09/04 10:14:14;;;;;;;5.03;2.40;;;20.90;45.10;;;;;;5008020;28;114449;-79
2023/09/04 10:16:49;;;;;;;5.07;2.20;;;21.10;45.30;;;;;;5014432;28;114281;-79
2023/09/04 10:19:17;;;;;;;6.10;2.35;;;21.00;45.90;;;;;;5023833;28;115230;-78
2023/09/04 10:21:52;;;;;;;4.30;2.50;;;21.20;45.90;;;;;;5024304;28;114905;-79
2023/09/04 10:24:22;;;;;;;6.50;2.45;;;21.30;45.50;;;;;;5025056;28;114347;-79
2023/09/04 10:27:02;;;;;;;6.70;2.40;;;21.30;44.90;;;;;;5008147;28;114628;-79
2023/09/04 10:29:32;;;;;;;4.40;2.40;;;21.30;45.30;;;;;;5023194;28;114879;-80
2023/09/04 10:31:59;;;;;;;5.85;2.30;;;21.20;44.90;;;;;;5007370;28;114580;-79
2023/09/04 10:34:26;;;;;;;6.65;2.47;;;21.10;45.00;;;;;;4992077;28;114231;-78
2023/09/04 10:36:53;;;;;;;6.15;2.25;;;21.10;44.80;;;;;;5025939;28;114373;-79
2023/09/04 10:39:21;;;;;;;4.70;2.30;;;21.00;45.00;;;;;;5007036;28;117863;-79
2023/09/04 10:41:48;;;;;;;5.50;2.30;;;21.00;45.30;;;;;;5023448;28;117549;-80
2023/09/04 10:44:46;;;;;;;3.78;2.00;;;21.00;45.20;;;;;;5007727;28;114122;-79
2023/09/04 10:47:14;;;;;;;5.15;2.47;;;21.10;45.10;;;;;;5024771;28;114238;-80
2023/09/04 10:49:42;;;;;;;6.28;2.90;;;20.90;45.80;;;;;;5023623;28;114941;-80
2023/09/04 10:52:10;;;;;;;3.80;2.03;;;21.10;46.20;;;;;;5027284;27;114931;-80
2023/09/04 10:54:37;;;;;;;5.75;2.35;;;21.30;44.30;;;;;;5027443;28;114118;-79
2023/09/04 10:57:10;;;;;;;5.25;2.03;;;21.20;45.00;;;;;;5028734;28;114211;-80
2023/09/04 10:59:53;;;;;;;5.10;2.13;;;21.20;44.60;;;;;;5027860;28;114783;-79
2023/09/04 11:02:27;;;;;;;4.50;2.40;;;21.20;44.80;;;;;;5028254;28;115353;-78
2023/09/04 11:04:58;;;;;;;5.93;2.17;;;21.10;44.60;;;;;;5029153;28;114377;-79
2023/09/04 11:07:35;;;;;;;3.78;2.22;;;21.10;44.00;;;;;;5028925;28;114192;-79
2023/09/04 11:10:29;;;;;;;6.60;2.20;;;21.30;45.10;;;;;;5028937;28;115327;-79
2023/09/04 11:12:56;;;;;;;4.37;2.10;;;21.30;43.20;;;;;;5027926;28;114777;-79
2023/09/04 11:15:24;;;;;;;4.28;2.28;;;21.30;42.40;;;;;;5028650;28;114309;-78
2023/09/04 11:17:51;;;;;;;5.28;2.13;;;21.30;42.90;;;;;;5027697;28;114581;-79
2023/09/04 11:20:23;;;;;;;6.18;2.42;;;21.40;43.30;;;;;;5009326;28;114569;-80
2023/09/04 11:22:51;;;;;;;3.92;2.10;;;21.40;43.30;;;;;;5027383;27;115892;-78
2023/09/04 11:25:20;;;;;;;4.22;2.10;;;21.30;44.20;;;;;;5026826;28;114293;-78
2023/09/04 11:27:47;;;;;;;5.18;2.40;;;21.40;43.70;;;;;;5010933;28;114137;-79
2023/09/04 11:30:14;;;;;;;4.50;2.53;;;21.30;43.20;;;;;;5027755;28;114846;-79
2023/09/04 11:32:42;;;;;;;4.95;2.35;;;21.30;43.50;;;;;;5026391;28;114723;-78
2023/09/04 11:35:13;;;;;;;4.55;2.20;;;21.20;44.40;;;;;;5028621;28;114235;-79
2023/09/04 11:37:49;;;;;;;4.38;2.42;;;21.20;44.10;;;;;;5026753;28;114377;-79
2023/09/04 11:40:16;;;;;;;5.97;2.58;;;21.10;43.20;;;;;;5009404;28;117763;-79
2023/09/04 11:42:43;;;;;;;4.15;2.00;;;21.10;43.20;;;;;;5026949;28;114821;-78
2023/09/04 11:45:10;;;;;;;4.40;2.28;;;21.10;42.90;;;;;;5026810;28;114668;-79
2023/09/04 11:47:37;;;;;;;5.95;2.22;;;21.10;42.30;;;;;;5027416;28;114174;-79
2023/09/04 11:50:13;;;;;;;4.57;2.50;;;21.30;43.00;;;;;;5009997;28;116251;-78
2023/09/04 11:52:43;;;;;;;4.40;2.20;;;21.40;43.20;;;;;;5025745;28;115870;-80
2023/09/04 11:55:11;;;;;;;6.00;2.58;;;21.50;42.90;;;;;;5027849;28;114152;-80
2023/09/04 11:57:39;;;;;;;4.25;2.30;;;21.60;41.90;;;;;;5028179;28;114180;-77
2023/09/04 12:00:07;;;;;;;5.70;2.13;;;21.60;42.30;;;;;;5025875;28;118540;-79
2023/09/04 12:02:42;;;;;;;3.55;2.05;;;21.70;40.70;;;;;;5026673;27;114747;-79
2023/09/04 12:05:11;;;;;;;3.60;2.03;;;21.80;41.90;;;;;;5027220;28;114197;-78
2023/09/04 12:07:38;;;;;;;4.90;2.40;;;21.80;40.90;;;;;;5026631;28;114392;-79
2023/09/04 12:10:08;;;;;;;5.35;2.20;;;21.70;42.10;;;;;;5009150;28;114988;-78
2023/09/04 12:12:38;;;;;;;4.82;2.35;;;21.70;42.10;;;;;;5025983;28;114783;-78
2023/09/04 12:15:06;;;;;;;4.43;2.00;;;21.60;41.40;;;;;;5025982;28;114243;-78
2023/09/04 12:17:35;;;;;;;4.20;2.30;;;21.60;40.80;;;;;;5026387;28;114403;-79
2023/09/04 12:20:09;;;;;;;5.32;2.75;;;21.40;41.20;;;;;;5026805;28;115417;-79
2023/09/04 12:22:36;;;;;;;3.72;2.13;;;21.30;42.20;;;;;;5009445;28;116107;-78
2023/09/04 12:25:07;;;;;;;4.38;2.38;;;21.20;43.00;;;;;;5009714;28;114537;-79
2023/09/04 12:27:35;;;;;;;4.88;2.30;;;21.30;43.50;;;;;;5028252;28;114384;-79
2023/09/04 12:30:04;;;;;;;5.65;2.50;;;21.30;42.80;;;;;;5025428;28;118238;-79
2023/09/04 12:32:34;;;;;;;4.85;2.22;;;21.40;42.70;;;;;;5028502;28;114692;-80
2023/09/04 12:35:08;;;;;;;3.80;1.88;;;21.40;42.00;;;;;;5009837;28;114403;-77
2023/09/04 12:37:36;;;;;;;5.70;2.33;;;21.40;42.30;;;;;;5026174;28;114490;-80
2023/09/04 12:40:04;;;;;;;5.72;2.50;;;21.40;42.00;;;;;;5026782;28;115043;-79
2023/09/04 12:42:31;;;;;;;4.15;2.00;;;21.30;41.90;;;;;;5026112;27;116117;-79